This is the latest recevied weather packets stored in our database for station/object SP5XSL-4. If no packets are shown the sender has not sent any weather packets the latest 1 day(s).
| Time | Temp. | Humidity | Pressure | Rain* | Wind** | Luminosity | Snow |
|---|---|---|---|---|---|---|---|
| 1777969189 | 18.33° C | - | 1016.6 hPa | - | 0.89 m/s, 108° | - | - |
| 1777968593 | 18.33° C | - | 1016.9 hPa | - | 0.89 m/s, 113° | - | - |
| 1777968040 | 18.33° C | - | 1016.9 hPa | - | 4.02 m/s, 72° | - | - |
| 1777967492 | 17.78° C | - | 1016.8 hPa | - | 4.92 m/s, 73° | - | - |
| 1777966989 | 17.78° C | - | 1016.9 hPa | - | 9.83 m/s, 14° | - | - |
| 1777966387 | 17.78° C | - | 1016.7 hPa | - | 4.02 m/s, 103° | - | - |
| 1777965862 | 17.22° C | - | 1017.1 hPa | - | 5.81 m/s, 29° | - | - |
| 1777965342 | 16.67° C | - | 1016.8 hPa | - | 3.13 m/s, 34° | - | - |
| 1777964822 | 16.67° C | - | 1017.2 hPa | - | 3.13 m/s, 47° | - | - |
| 1777964299 | 16.67° C | - | 1017.2 hPa | - | 3.13 m/s, 99° | - | - |
| 1777963721 | 16.11° C | - | 1017.1 hPa | - | 4.02 m/s, 81° | - | - |
| 1777963232 | 16.11° C | - | 1017.3 hPa | - | 4.02 m/s, 85° | - | - |
| 1777962672 | 16.11° C | - | 1017.3 hPa | - | 3.13 m/s, 63° | - | - |
| 1777962069 | 15.56° C | - | 1017.4 hPa | - | 4.02 m/s, 60° | - | - |
| 1777961481 | 15.56° C | - | 1017.6 hPa | - | 4.92 m/s, 75° | - | - |
| 1777960907 | 15.56° C | - | 1017.3 hPa | - | 4.02 m/s, 72° | - | - |
| 1777960327 | 15.56° C | - | 1017.4 hPa | - | 4.92 m/s, 56° | - | - |
| 1777959719 | 15.56° C | - | 1017.6 hPa | - | 3.13 m/s, 95° | - | - |
| 1777959149 | 15.56° C | - | 1017.3 hPa | - | 3.13 m/s, 98° | - | - |
| 1777958642 | 15.56° C | - | 1017.7 hPa | - | 0.89 m/s, 115° | - | - |
| 1777958043 | 15° C | - | 1017.7 hPa | - | 0.89 m/s, 101° | - | - |
| 1777957462 | 13.89° C | - | 1017.9 hPa | - | 0.89 m/s, 112° | - | - |
| 1777956901 | 13.89° C | - | 1017.6 hPa | - | 0.89 m/s, 124° | - | - |
| 1777956421 | 13.33° C | - | 1017.6 hPa | - | 0.89 m/s, 116° | - | - |
| 1777955871 | 13.33° C | - | 1017.7 hPa | - | 0 m/s | - | - |
* Rain since midnight (hover to see other rain measurements)
** Current wind speed in m/s (hover to see current wind gust speed)